Strona główna
METAR-TAF:

METAR-TAF

Lotnisko :

Port lotniczy Arnhem-Deelen

Arnhem, Holandia

Szerokość geograficzna: 52-04N, Długość geograficzna: 005-53E, wysokość: 48 m

Aktualna obserwacja pogody

Raport powstał 26 minut temu, godzina 11:25 UTC
Wiatr 8 kt od południe, zmienny między południowy wschód i południowo-południowy zachód
Temperatura 8°C
Wilgotność 93%
Ciśnienie 1004 hPa
Widzialność 10 km lub więcej
Mało chmury na wysokości 1500 ft, Cumulonimbus.
Przerywane chmury na wysokości 5100 ft
Przerywane chmury na wysokości 5600 ft
słaby deszcz

METAR: EHDL 161125Z AUTO 17008KT 130V210 9999 -RA FEW015CB BKN051 BKN056 08/07 Q1004 RERA REDZ BLU

czas: 12:51 (11:51 UTC)


TAF: brakujący

Obserwacja i prognoza pogody dla ponad 4000 lotnisk (raport METAR i TAF).

Dostępne stacje oznaczono żółtymi i czerwonymi punktami na mapie.

Najedź kursorem aby zobaczyć nazwę stacji.

Kliknij aby zobaczyć obserwacje i prognozy pogody.

Aby zmienić mapę: kliknij na zielony przycisk z czarnym krzyżykiem, aby powiększyć; na zielony przycisk z myślnikiem, aby pomniejszyć; na zielone strzałki, aby przejść do map sąsiednich.


METAR-TAF: